sensor_id;sensor_type;location;lat;lon;timestamp;pressure;altitude;pressure_sealevel;temperature;humidity
71621;BME280;59471;42.254;23.102;2023-05-19T00:01:56;96105.41;;;11.85;87.75
71621;BME280;59471;42.254;23.102;2023-05-19T00:04:25;96105.91;;;11.80;87.82
71621;BME280;59471;42.254;23.102;2023-05-19T00:06:52;96097.66;;;11.68;87.71
71621;BME280;59471;42.254;23.102;2023-05-19T00:09:19;96090.84;;;11.59;88.58
71621;BME280;59471;42.254;23.102;2023-05-19T00:11:44;96093.47;;;11.59;88.15
71621;BME280;59471;42.254;23.102;2023-05-19T00:14:10;96081.34;;;11.58;89.17
71621;BME280;59471;42.254;23.102;2023-05-19T00:16:36;96083.88;;;11.66;85.53
71621;BME280;59471;42.254;23.102;2023-05-19T00:19:03;96089.78;;;11.68;85.32
71621;BME280;59471;42.254;23.102;2023-05-19T00:21:30;96086.25;;;11.61;87.10
71621;BME280;59471;42.254;23.102;2023-05-19T00:23:57;96095.56;;;11.64;86.63
71621;BME280;59471;42.254;23.102;2023-05-19T00:26:24;96089.97;;;11.67;86.17
71621;BME280;59471;42.254;23.102;2023-05-19T00:28:51;96092.41;;;11.68;83.82
71621;BME280;59471;42.254;23.102;2023-05-19T00:31:17;96091.16;;;11.64;84.17
71621;BME280;59471;42.254;23.102;2023-05-19T00:33:43;96082.63;;;11.62;84.34
71621;BME280;59471;42.254;23.102;2023-05-19T00:36:08;96082.53;;;11.55;84.78
71621;BME280;59471;42.254;23.102;2023-05-19T00:38:35;96073.63;;;11.42;86.02
71621;BME280;59471;42.254;23.102;2023-05-19T00:41:03;96071.78;;;11.65;84.61
71621;BME280;59471;42.254;23.102;2023-05-19T00:43:29;96081.47;;;11.65;85.61
71621;BME280;59471;42.254;23.102;2023-05-19T00:45:56;96083.44;;;11.63;85.83
71621;BME280;59471;42.254;23.102;2023-05-19T00:48:23;96086.97;;;11.55;86.93
71621;BME280;59471;42.254;23.102;2023-05-19T00:50:49;96094.47;;;11.58;86.97
71621;BME280;59471;42.254;23.102;2023-05-19T00:53:17;96089.13;;;11.66;87.45
71621;BME280;59471;42.254;23.102;2023-05-19T00:55:43;96097.00;;;11.66;88.82
71621;BME280;59471;42.254;23.102;2023-05-19T00:58:10;96084.81;;;11.73;88.67
71621;BME280;59471;42.254;23.102;2023-05-19T01:00:37;96086.16;;;11.69;89.23
71621;BME280;59471;42.254;23.102;2023-05-19T01:03:07;96080.41;;;11.74;88.80
71621;BME280;59471;42.254;23.102;2023-05-19T01:05:39;96078.47;;;11.68;89.50
71621;BME280;59471;42.254;23.102;2023-05-19T01:08:11;96081.97;;;11.60;90.63
71621;BME280;59471;42.254;23.102;2023-05-19T01:10:37;96073.84;;;11.55;91.13
71621;BME280;59471;42.254;23.102;2023-05-19T01:13:03;96064.72;;;11.51;91.16
71621;BME280;59471;42.254;23.102;2023-05-19T01:15:32;96080.72;;;11.56;91.11
71621;BME280;59471;42.254;23.102;2023-05-19T01:18:14;96071.81;;;11.42;91.63
71621;BME280;59471;42.254;23.102;2023-05-19T01:20:50;96076.34;;;11.25;92.80
71621;BME280;59471;42.254;23.102;2023-05-19T01:23:48;96067.97;;;11.30;92.62
71621;BME280;59471;42.254;23.102;2023-05-19T01:26:38;96071.38;;;11.39;92.68
71621;BME280;59471;42.254;23.102;2023-05-19T01:32:26;96065.00;;;10.87;94.67
71621;BME280;59471;42.254;23.102;2023-05-19T01:34:54;96056.31;;;10.86;93.94
71621;BME280;59471;42.254;23.102;2023-05-19T01:37:22;96062.56;;;11.08;93.63
71621;BME280;59471;42.254;23.102;2023-05-19T01:39:49;96067.75;;;10.94;94.33
71621;BME280;59471;42.254;23.102;2023-05-19T01:42:15;96058.75;;;10.65;95.22
71621;BME280;59471;42.254;23.102;2023-05-19T01:44:41;96068.38;;;10.73;95.18
71621;BME280;59471;42.254;23.102;2023-05-19T01:47:08;96057.13;;;10.64;95.27
71621;BME280;59471;42.254;23.102;2023-05-19T01:49:35;96060.75;;;10.86;92.81
71621;BME280;59471;42.254;23.102;2023-05-19T01:52:00;96061.19;;;10.98;91.77
71621;BME280;59471;42.254;23.102;2023-05-19T01:54:26;96063.81;;;10.98;90.84
71621;BME280;59471;42.254;23.102;2023-05-19T01:57:03;96060.19;;;10.99;90.77
71621;BME280;59471;42.254;23.102;2023-05-19T02:08:11;96054.28;;;10.42;92.75
71621;BME280;59471;42.254;23.102;2023-05-19T02:10:40;96061.84;;;10.37;93.91
71621;BME280;59471;42.254;23.102;2023-05-19T02:13:12;96068.03;;;10.44;92.60
71621;BME280;59471;42.254;23.102;2023-05-19T02:15:43;96062.19;;;10.34;93.84
71621;BME280;59471;42.254;23.102;2023-05-19T02:18:10;96048.56;;;10.39;93.00
71621;BME280;59471;42.254;23.102;2023-05-19T02:20:37;96057.47;;;10.21;93.82
71621;BME280;59471;42.254;23.102;2023-05-19T02:23:03;96055.22;;;10.50;92.38
71621;BME280;59471;42.254;23.102;2023-05-19T02:25:29;96054.66;;;10.23;93.32
71621;BME280;59471;42.254;23.102;2023-05-19T02:27:57;96050.97;;;10.01;94.75
71621;BME280;59471;42.254;23.102;2023-05-19T02:30:23;96062.88;;;10.12;94.57
71621;BME280;59471;42.254;23.102;2023-05-19T02:32:49;96071.34;;;10.30;92.96
71621;BME280;59471;42.254;23.102;2023-05-19T02:35:14;96073.50;;;10.18;94.62
71621;BME280;59471;42.254;23.102;2023-05-19T02:37:40;96068.91;;;10.29;94.67
71621;BME280;59471;42.254;23.102;2023-05-19T02:40:06;96069.03;;;10.35;93.83
71621;BME280;59471;42.254;23.102;2023-05-19T02:42:32;96079.31;;;10.45;94.27
71621;BME280;59471;42.254;23.102;2023-05-19T02:44:59;96067.81;;;10.54;93.32
71621;BME280;59471;42.254;23.102;2023-05-19T02:47:24;96085.34;;;10.46;94.03
71621;BME280;59471;42.254;23.102;2023-05-19T02:49:50;96082.44;;;10.40;93.45
71621;BME280;59471;42.254;23.102;2023-05-19T02:52:15;96083.47;;;10.31;94.17
71621;BME280;59471;42.254;23.102;2023-05-19T02:54:41;96082.41;;;10.49;93.47
71621;BME280;59471;42.254;23.102;2023-05-19T02:57:07;96077.91;;;10.34;94.47
71621;BME280;59471;42.254;23.102;2023-05-19T02:59:32;96080.47;;;10.42;93.17
71621;BME280;59471;42.254;23.102;2023-05-19T03:01:59;96082.44;;;10.40;94.03
71621;BME280;59471;42.254;23.102;2023-05-19T03:04:26;96081.63;;;10.40;94.40
71621;BME280;59471;42.254;23.102;2023-05-19T03:06:52;96081.41;;;10.50;93.41
71621;BME280;59471;42.254;23.102;2023-05-19T03:09:18;96084.75;;;10.35;93.52
71621;BME280;59471;42.254;23.102;2023-05-19T03:11:44;96077.13;;;10.57;93.05
71621;BME280;59471;42.254;23.102;2023-05-19T03:14:10;96094.41;;;10.35;94.02
71621;BME280;59471;42.254;23.102;2023-05-19T03:16:37;96096.16;;;10.42;94.51
71621;BME280;59471;42.254;23.102;2023-05-19T03:19:05;96083.34;;;10.56;91.85
71621;BME280;59471;42.254;23.102;2023-05-19T03:21:31;96075.13;;;10.59;91.83
71621;BME280;59471;42.254;23.102;2023-05-19T03:23:56;96082.66;;;10.62;91.29
71621;BME280;59471;42.254;23.102;2023-05-19T03:26:22;96084.69;;;10.52;92.30
71621;BME280;59471;42.254;23.102;2023-05-19T03:28:48;96082.03;;;10.60;92.28
71621;BME280;59471;42.254;23.102;2023-05-19T03:31:14;96086.63;;;10.50;92.99
71621;BME280;59471;42.254;23.102;2023-05-19T03:33:40;96086.59;;;10.66;91.45
71621;BME280;59471;42.254;23.102;2023-05-19T03:36:06;96083.56;;;10.77;91.03
71621;BME280;59471;42.254;23.102;2023-05-19T03:38:31;96083.22;;;10.80;90.39
71621;BME280;59471;42.254;23.102;2023-05-19T03:40:57;96085.91;;;10.72;91.34
71621;BME280;59471;42.254;23.102;2023-05-19T03:43:22;96094.47;;;10.58;91.68
71621;BME280;59471;42.254;23.102;2023-05-19T03:45:48;96081.69;;;10.63;92.37
71621;BME280;59471;42.254;23.102;2023-05-19T03:48:13;96087.28;;;10.52;92.76
71621;BME280;59471;42.254;23.102;2023-05-19T03:50:40;96086.88;;;10.71;92.15
71621;BME280;59471;42.254;23.102;2023-05-19T03:53:06;96090.81;;;10.67;91.90
71621;BME280;59471;42.254;23.102;2023-05-19T03:55:32;96090.97;;;10.65;93.08
71621;BME280;59471;42.254;23.102;2023-05-19T03:57:57;96095.75;;;10.62;92.04
71621;BME280;59471;42.254;23.102;2023-05-19T04:00:23;96099.06;;;10.56;92.85
71621;BME280;59471;42.254;23.102;2023-05-19T04:02:49;96106.16;;;10.78;92.49
71621;BME280;59471;42.254;23.102;2023-05-19T04:05:15;96105.94;;;10.88;90.79
71621;BME280;59471;42.254;23.102;2023-05-19T04:07:40;96108.59;;;11.11;88.28
71621;BME280;59471;42.254;23.102;2023-05-19T04:10:07;96101.22;;;11.06;89.33
71621;BME280;59471;42.254;23.102;2023-05-19T04:12:33;96100.16;;;11.01;90.70
71621;BME280;59471;42.254;23.102;2023-05-19T04:14:58;96110.16;;;10.97;88.08
71621;BME280;59471;42.254;23.102;2023-05-19T04:17:24;96106.19;;;11.01;88.72
71621;BME280;59471;42.254;23.102;2023-05-19T04:19:54;96105.84;;;11.04;89.97
71621;BME280;59471;42.254;23.102;2023-05-19T04:22:20;96108.16;;;11.22;89.97
71621;BME280;59471;42.254;23.102;2023-05-19T04:24:45;96111.91;;;11.28;89.83
71621;BME280;59471;42.254;23.102;2023-05-19T04:27:12;96112.84;;;11.35;87.27
71621;BME280;59471;42.254;23.102;2023-05-19T04:29:38;96110.88;;;11.14;87.20
71621;BME280;59471;42.254;23.102;2023-05-19T04:32:05;96112.22;;;11.10;88.58
71621;BME280;59471;42.254;23.102;2023-05-19T04:34:30;96108.91;;;11.16;88.89
71621;BME280;59471;42.254;23.102;2023-05-19T04:36:56;96111.78;;;11.44;88.56
71621;BME280;59471;42.254;23.102;2023-05-19T04:39:21;96102.13;;;11.45;89.28
71621;BME280;59471;42.254;23.102;2023-05-19T04:41:48;96108.34;;;11.67;88.52
71621;BME280;59471;42.254;23.102;2023-05-19T04:44:13;96111.88;;;11.74;88.70
71621;BME280;59471;42.254;23.102;2023-05-19T04:46:42;96106.88;;;11.64;88.23
71621;BME280;59471;42.254;23.102;2023-05-19T04:49:09;96101.53;;;11.57;88.21
71621;BME280;59471;42.254;23.102;2023-05-19T04:51:37;96100.47;;;11.44;87.05
71621;BME280;59471;42.254;23.102;2023-05-19T04:54:06;96096.28;;;11.57;87.51
71621;BME280;59471;42.254;23.102;2023-05-19T04:56:32;96102.53;;;11.71;86.77
71621;BME280;59471;42.254;23.102;2023-05-19T04:58:57;96100.09;;;11.93;83.35
71621;BME280;59471;42.254;23.102;2023-05-19T05:01:23;96105.03;;;11.88;84.91
71621;BME280;59471;42.254;23.102;2023-05-19T05:03:50;96110.94;;;11.90;86.40
71621;BME280;59471;42.254;23.102;2023-05-19T05:06:20;96125.16;;;12.10;86.54
71621;BME280;59471;42.254;23.102;2023-05-19T05:08:47;96122.19;;;12.13;83.66
71621;BME280;59471;42.254;23.102;2023-05-19T05:11:13;96116.22;;;12.04;84.76
71621;BME280;59471;42.254;23.102;2023-05-19T05:13:39;96115.56;;;12.02;85.52
71621;BME280;59471;42.254;23.102;2023-05-19T05:16:05;96129.44;;;12.41;84.12
71621;BME280;59471;42.254;23.102;2023-05-19T05:18:33;96128.19;;;12.37;84.64
71621;BME280;59471;42.254;23.102;2023-05-19T05:21:00;96142.28;;;12.36;82.42
71621;BME280;59471;42.254;23.102;2023-05-19T05:23:27;96127.00;;;12.24;83.19
71621;BME280;59471;42.254;23.102;2023-05-19T05:25:53;96123.13;;;12.20;81.89
71621;BME280;59471;42.254;23.102;2023-05-19T05:28:19;96117.59;;;12.30;82.99
71621;BME280;59471;42.254;23.102;2023-05-19T05:30:44;96124.91;;;12.35;81.91
71621;BME280;59471;42.254;23.102;2023-05-19T05:33:10;96109.44;;;12.25;82.75
71621;BME280;59471;42.254;23.102;2023-05-19T05:35:36;96114.94;;;12.45;82.63
71621;BME280;59471;42.254;23.102;2023-05-19T05:38:02;96115.75;;;12.60;81.75
71621;BME280;59471;42.254;23.102;2023-05-19T05:40:27;96105.69;;;12.64;81.71
71621;BME280;59471;42.254;23.102;2023-05-19T05:42:53;96108.31;;;12.64;80.92
71621;BME280;59471;42.254;23.102;2023-05-19T05:45:24;96100.63;;;12.62;81.37
71621;BME280;59471;42.254;23.102;2023-05-19T05:47:50;96105.72;;;12.49;81.66
71621;BME280;59471;42.254;23.102;2023-05-19T05:50:16;96100.75;;;12.39;81.65
71621;BME280;59471;42.254;23.102;2023-05-19T05:52:46;96103.00;;;12.27;83.87
71621;BME280;59471;42.254;23.102;2023-05-19T05:55:13;96100.72;;;12.54;82.34
71621;BME280;59471;42.254;23.102;2023-05-19T05:57:41;96108.13;;;12.65;82.83
71621;BME280;59471;42.254;23.102;2023-05-19T06:00:07;96096.50;;;12.89;81.50
71621;BME280;59471;42.254;23.102;2023-05-19T06:02:48;96098.38;;;13.17;80.67
71621;BME280;59471;42.254;23.102;2023-05-19T06:05:15;96097.50;;;13.25;81.35
71621;BME280;59471;42.254;23.102;2023-05-19T06:07:41;96104.38;;;13.47;79.07
71621;BME280;59471;42.254;23.102;2023-05-19T06:10:07;96104.50;;;13.60;79.60
71621;BME280;59471;42.254;23.102;2023-05-19T06:12:34;96109.00;;;13.66;80.19
71621;BME280;59471;42.254;23.102;2023-05-19T06:15:04;96108.34;;;13.86;78.11
71621;BME280;59471;42.254;23.102;2023-05-19T06:17:30;96116.19;;;14.07;79.54
71621;BME280;59471;42.254;23.102;2023-05-19T06:19:56;96118.97;;;13.99;77.61
71621;BME280;59471;42.254;23.102;2023-05-19T06:22:21;96122.91;;;14.10;77.53
71621;BME280;59471;42.254;23.102;2023-05-19T06:24:47;96113.91;;;14.26;78.81
71621;BME280;59471;42.254;23.102;2023-05-19T06:27:12;96112.78;;;14.48;76.75
71621;BME280;59471;42.254;23.102;2023-05-19T06:29:38;96120.97;;;14.53;76.28
71621;BME280;59471;42.254;23.102;2023-05-19T06:32:03;96123.66;;;14.67;73.62
71621;BME280;59471;42.254;23.102;2023-05-19T06:34:29;96119.56;;;14.57;73.72
71621;BME280;59471;42.254;23.102;2023-05-19T06:36:55;96130.81;;;14.79;74.92
71621;BME280;59471;42.254;23.102;2023-05-19T06:39:20;96122.59;;;15.02;73.47
71621;BME280;59471;42.254;23.102;2023-05-19T06:41:46;96131.78;;;15.20;72.02
71621;BME280;59471;42.254;23.102;2023-05-19T06:44:11;96127.75;;;15.44;71.65
71621;BME280;59471;42.254;23.102;2023-05-19T06:46:37;96128.97;;;15.41;72.58
71621;BME280;59471;42.254;23.102;2023-05-19T06:49:02;96131.44;;;15.49;73.09
71621;BME280;59471;42.254;23.102;2023-05-19T06:51:28;96136.75;;;15.76;71.76
71621;BME280;59471;42.254;23.102;2023-05-19T06:53:53;96126.81;;;15.78;71.87
71621;BME280;59471;42.254;23.102;2023-05-19T06:56:19;96132.31;;;15.96;69.68
71621;BME280;59471;42.254;23.102;2023-05-19T06:58:47;96128.63;;;15.84;70.11
71621;BME280;59471;42.254;23.102;2023-05-19T07:01:12;96137.38;;;15.71;71.67
71621;BME280;59471;42.254;23.102;2023-05-19T07:03:37;96131.03;;;15.59;71.45
71621;BME280;59471;42.254;23.102;2023-05-19T07:06:03;96125.78;;;15.79;72.51
71621;BME280;59471;42.254;23.102;2023-05-19T07:08:29;96137.19;;;15.99;70.29
71621;BME280;59471;42.254;23.102;2023-05-19T07:10:54;96125.56;;;16.14;71.21
71621;BME280;59471;42.254;23.102;2023-05-19T07:13:20;96132.09;;;16.18;68.10
71621;BME280;59471;42.254;23.102;2023-05-19T07:15:46;96135.91;;;16.29;69.22
71621;BME280;59471;42.254;23.102;2023-05-19T07:18:13;96131.84;;;16.46;71.00
71621;BME280;59471;42.254;23.102;2023-05-19T07:20:39;96133.84;;;16.51;67.46
71621;BME280;59471;42.254;23.102;2023-05-19T07:23:05;96134.66;;;16.51;68.38
71621;BME280;59471;42.254;23.102;2023-05-19T07:25:31;96132.22;;;16.56;69.24
71621;BME280;59471;42.254;23.102;2023-05-19T07:27:57;96129.34;;;16.58;67.73
71621;BME280;59471;42.254;23.102;2023-05-19T07:30:23;96121.19;;;16.66;67.84
71621;BME280;59471;42.254;23.102;2023-05-19T07:32:49;96127.41;;;16.98;68.80
71621;BME280;59471;42.254;23.102;2023-05-19T07:35:14;96116.91;;;17.23;65.49
71621;BME280;59471;42.254;23.102;2023-05-19T07:37:40;96117.19;;;17.47;65.48
71621;BME280;59471;42.254;23.102;2023-05-19T07:40:06;96119.69;;;17.35;66.93
71621;BME280;59471;42.254;23.102;2023-05-19T07:42:32;96118.41;;;17.12;64.69
71621;BME280;59471;42.254;23.102;2023-05-19T07:44:58;96114.81;;;17.32;64.71
71621;BME280;59471;42.254;23.102;2023-05-19T07:47:24;96108.63;;;17.13;66.44
71621;BME280;59471;42.254;23.102;2023-05-19T07:49:49;96109.25;;;17.47;66.13
71621;BME280;59471;42.254;23.102;2023-05-19T07:52:15;96101.88;;;17.80;64.58
71621;BME280;59471;42.254;23.102;2023-05-19T07:54:42;96110.81;;;17.86;64.44
71621;BME280;59471;42.254;23.102;2023-05-19T07:57:09;96107.53;;;17.91;63.42
71621;BME280;59471;42.254;23.102;2023-05-19T07:59:34;96104.88;;;17.91;64.01
71621;BME280;59471;42.254;23.102;2023-05-19T08:02:00;96106.97;;;18.07;63.31
71621;BME280;59471;42.254;23.102;2023-05-19T08:04:25;96102.66;;;18.13;62.72
71621;BME280;59471;42.254;23.102;2023-05-19T08:06:51;96101.09;;;18.23;64.22
71621;BME280;59471;42.254;23.102;2023-05-19T08:09:18;96101.25;;;18.47;59.93
71621;BME280;59471;42.254;23.102;2023-05-19T08:38:21;96078.09;;;19.09;55.67
71621;BME280;59471;42.254;23.102;2023-05-19T08:40:46;96088.72;;;19.39;55.65
71621;BME280;59471;42.254;23.102;2023-05-19T08:43:12;96078.69;;;19.53;52.75
71621;BME280;59471;42.254;23.102;2023-05-19T08:45:42;96083.19;;;19.53;52.79
71621;BME280;59471;42.254;23.102;2023-05-19T08:48:08;96071.31;;;19.55;52.36
71621;BME280;59471;42.254;23.102;2023-05-19T08:50:39;96078.50;;;19.66;52.02
71621;BME280;59471;42.254;23.102;2023-05-19T08:53:19;96066.06;;;19.79;53.84
71621;BME280;59471;42.254;23.102;2023-05-19T08:56:03;96065.25;;;20.02;53.38
71621;BME280;59471;42.254;23.102;2023-05-19T08:58:34;96073.91;;;20.21;49.07
71621;BME280;59471;42.254;23.102;2023-05-19T09:01:01;96069.66;;;20.08;50.97
71621;BME280;59471;42.254;23.102;2023-05-19T09:03:28;96067.13;;;20.25;51.31
71621;BME280;59471;42.254;23.102;2023-05-19T09:05:54;96065.38;;;20.30;50.09
71621;BME280;59471;42.254;23.102;2023-05-19T09:08:19;96054.63;;;20.37;50.64
71621;BME280;59471;42.254;23.102;2023-05-19T09:10:45;96046.38;;;20.50;50.00
71621;BME280;59471;42.254;23.102;2023-05-19T09:13:10;96047.19;;;20.63;48.58
71621;BME280;59471;42.254;23.102;2023-05-19T09:15:37;96048.22;;;20.50;49.13
71621;BME280;59471;42.254;23.102;2023-05-19T09:18:11;96038.94;;;20.76;48.62
71621;BME280;59471;42.254;23.102;2023-05-19T09:20:39;96044.88;;;20.66;47.24
71621;BME280;59471;42.254;23.102;2023-05-19T09:23:05;96033.16;;;20.67;46.61
71621;BME280;59471;42.254;23.102;2023-05-19T09:25:32;96042.41;;;20.76;46.37
71621;BME280;59471;42.254;23.102;2023-05-19T09:27:58;96031.41;;;21.01;46.17
71621;BME280;59471;42.254;23.102;2023-05-19T09:30:23;96032.19;;;21.30;44.95
71621;BME280;59471;42.254;23.102;2023-05-19T09:32:50;96035.09;;;21.41;44.22
71621;BME280;59471;42.254;23.102;2023-05-19T09:35:16;96049.97;;;21.54;45.16
71621;BME280;59471;42.254;23.102;2023-05-19T09:37:44;96028.72;;;21.13;45.31
71621;BME280;59471;42.254;23.102;2023-05-19T09:40:13;96034.13;;;21.64;46.07
71621;BME280;59471;42.254;23.102;2023-05-19T09:42:40;96036.22;;;21.62;44.20
71621;BME280;59471;42.254;23.102;2023-05-19T09:45:07;96030.50;;;21.70;46.08
71621;BME280;59471;42.254;23.102;2023-05-19T09:47:36;96024.91;;;21.88;44.13
71621;BME280;59471;42.254;23.102;2023-05-19T09:50:08;96033.78;;;21.77;45.09
71621;BME280;59471;42.254;23.102;2023-05-19T09:52:38;96028.97;;;22.13;43.72
71621;BME280;59471;42.254;23.102;2023-05-19T09:55:08;96030.38;;;21.98;43.33
71621;BME280;59471;42.254;23.102;2023-05-19T09:57:36;96029.22;;;22.11;42.86
71621;BME280;59471;42.254;23.102;2023-05-19T10:00:06;96037.94;;;22.07;41.55
71621;BME280;59471;42.254;23.102;2023-05-19T10:02:40;96022.97;;;22.01;42.10
71621;BME280;59471;42.254;23.102;2023-05-19T10:05:10;96031.97;;;22.33;42.00
71621;BME280;59471;42.254;23.102;2023-05-19T10:07:38;96022.03;;;22.51;43.67
71621;BME280;59471;42.254;23.102;2023-05-19T10:10:10;96018.69;;;22.38;43.25
71621;BME280;59471;42.254;23.102;2023-05-19T10:12:38;96017.25;;;22.53;42.34
71621;BME280;59471;42.254;23.102;2023-05-19T10:15:15;96021.19;;;22.67;43.66
71621;BME280;59471;42.254;23.102;2023-05-19T10:17:43;96016.34;;;22.64;43.09
71621;BME280;59471;42.254;23.102;2023-05-19T10:20:14;96019.00;;;22.64;41.69
71621;BME280;59471;42.254;23.102;2023-05-19T10:22:41;96012.72;;;22.31;42.40
71621;BME280;59471;42.254;23.102;2023-05-19T10:25:08;96015.00;;;22.66;41.27
71621;BME280;59471;42.254;23.102;2023-05-19T10:27:38;96005.16;;;22.67;42.80
71621;BME280;59471;42.254;23.102;2023-05-19T10:30:12;96008.31;;;22.86;43.86
71621;BME280;59471;42.254;23.102;2023-05-19T10:32:41;96006.00;;;22.95;41.36
71621;BME280;59471;42.254;23.102;2023-05-19T10:35:23;96007.06;;;22.72;44.75
71621;BME280;59471;42.254;23.102;2023-05-19T10:41:23;96005.78;;;22.30;42.33
71621;BME280;59471;42.254;23.102;2023-05-19T10:44:01;96003.41;;;21.78;43.84
71621;BME280;59471;42.254;23.102;2023-05-19T10:46:33;96010.53;;;21.56;45.51
71621;BME280;59471;42.254;23.102;2023-05-19T10:48:59;96003.69;;;21.31;44.81
71621;BME280;59471;42.254;23.102;2023-05-19T10:51:32;96003.69;;;21.14;45.65
71621;BME280;59471;42.254;23.102;2023-05-19T10:54:00;96013.69;;;21.52;46.05
71621;BME280;59471;42.254;23.102;2023-05-19T10:58:55;96000.13;;;22.10;42.72
71621;BME280;59471;42.254;23.102;2023-05-19T11:01:21;96003.56;;;21.88;44.77
71621;BME280;59471;42.254;23.102;2023-05-19T11:03:54;96007.97;;;21.61;44.89
71621;BME280;59471;42.254;23.102;2023-05-19T11:06:27;96011.59;;;21.55;43.11
71621;BME280;59471;42.254;23.102;2023-05-19T11:08:57;96005.63;;;21.47;45.63
71621;BME280;59471;42.254;23.102;2023-05-19T11:11:50;96013.69;;;21.52;44.93
71621;BME280;59471;42.254;23.102;2023-05-19T11:14:26;96013.41;;;21.37;45.56
71621;BME280;59471;42.254;23.102;2023-05-19T11:16:57;96023.31;;;22.09;46.42
71621;BME280;59471;42.254;23.102;2023-05-19T11:19:30;96025.88;;;22.60;47.82
71621;BME280;59471;42.254;23.102;2023-05-19T11:22:11;96012.88;;;22.41;46.98
71621;BME280;59471;42.254;23.102;2023-05-19T11:24:47;96009.94;;;22.43;47.38
71621;BME280;59471;42.254;23.102;2023-05-19T11:27:32;96010.59;;;21.78;47.47
71621;BME280;59471;42.254;23.102;2023-05-19T11:32:35;96016.81;;;21.49;49.78
71621;BME280;59471;42.254;23.102;2023-05-19T11:35:06;96027.13;;;21.29;50.05
71621;BME280;59471;42.254;23.102;2023-05-19T11:37:34;96018.06;;;21.30;50.59
71621;BME280;59471;42.254;23.102;2023-05-19T11:40:03;96006.75;;;21.51;50.71
71621;BME280;59471;42.254;23.102;2023-05-19T11:42:33;96003.56;;;20.92;52.54
71621;BME280;59471;42.254;23.102;2023-05-19T11:45:00;96001.28;;;20.55;51.97
71621;BME280;59471;42.254;23.102;2023-05-19T11:47:26;95999.38;;;20.68;52.80
71621;BME280;59471;42.254;23.102;2023-05-19T11:49:53;95999.09;;;20.41;52.90
71621;BME280;59471;42.254;23.102;2023-05-19T11:52:24;95999.00;;;20.24;50.96
71621;BME280;59471;42.254;23.102;2023-05-19T11:54:50;95996.03;;;20.49;54.09
71621;BME280;59471;42.254;23.102;2023-05-19T11:57:16;95997.06;;;20.71;54.02
71621;BME280;59471;42.254;23.102;2023-05-19T11:59:41;96002.75;;;21.37;53.96
71621;BME280;59471;42.254;23.102;2023-05-19T12:04:38;95981.84;;;22.35;46.65
71621;BME280;59471;42.254;23.102;2023-05-19T12:07:03;95992.75;;;22.34;46.31
71621;BME280;59471;42.254;23.102;2023-05-19T12:09:29;95987.59;;;21.88;49.06
71621;BME280;59471;42.254;23.102;2023-05-19T12:11:55;95978.38;;;21.79;48.02
71621;BME280;59471;42.254;23.102;2023-05-19T12:14:20;95976.94;;;22.10;46.51
71621;BME280;59471;42.254;23.102;2023-05-19T12:16:46;95959.16;;;22.38;44.50
71621;BME280;59471;42.254;23.102;2023-05-19T12:19:11;95986.00;;;22.75;45.48
71621;BME280;59471;42.254;23.102;2023-05-19T12:21:37;95978.97;;;22.64;42.98
71621;BME280;59471;42.254;23.102;2023-05-19T12:24:03;95966.16;;;22.22;41.71
71621;BME280;59471;42.254;23.102;2023-05-19T12:26:30;95964.28;;;22.01;41.99
71621;BME280;59471;42.254;23.102;2023-05-19T12:28:57;95968.78;;;22.00;42.63
71621;BME280;59471;42.254;23.102;2023-05-19T12:31:22;95956.50;;;22.16;42.92
71621;BME280;59471;42.254;23.102;2023-05-19T12:33:48;95963.13;;;22.79;41.35
71621;BME280;59471;42.254;23.102;2023-05-19T12:36:17;95965.59;;;22.86;41.21
71621;BME280;59471;42.254;23.102;2023-05-19T12:38:43;95968.53;;;23.11;40.64
71621;BME280;59471;42.254;23.102;2023-05-19T12:41:12;95963.75;;;22.91;42.20
71621;BME280;59471;42.254;23.102;2023-05-19T12:43:39;95967.66;;;23.06;39.87
71621;BME280;59471;42.254;23.102;2023-05-19T12:46:12;95971.88;;;22.75;40.61
71621;BME280;59471;42.254;23.102;2023-05-19T12:48:42;95971.78;;;22.42;41.57
71621;BME280;59471;42.254;23.102;2023-05-19T12:51:09;95976.78;;;22.00;41.22
71621;BME280;59471;42.254;23.102;2023-05-19T12:53:36;95971.47;;;21.44;42.02
71621;BME280;59471;42.254;23.102;2023-05-19T12:56:10;95982.06;;;21.11;44.09
71621;BME280;59471;42.254;23.102;2023-05-19T12:58:37;95983.31;;;20.91;44.93
71621;BME280;59471;42.254;23.102;2023-05-19T13:01:04;95982.13;;;20.70;45.99
71621;BME280;59471;42.254;23.102;2023-05-19T13:03:30;95986.13;;;20.56;47.18
71621;BME280;59471;42.254;23.102;2023-05-19T13:05:56;95989.25;;;20.41;46.19
71621;BME280;59471;42.254;23.102;2023-05-19T13:08:23;95974.22;;;20.35;46.89
71621;BME280;59471;42.254;23.102;2023-05-19T13:10:49;95982.09;;;20.30;45.94
71621;BME280;59471;42.254;23.102;2023-05-19T13:13:15;95980.03;;;20.32;46.28
71621;BME280;59471;42.254;23.102;2023-05-19T13:15:45;95982.81;;;20.37;46.68
71621;BME280;59471;42.254;23.102;2023-05-19T13:18:14;95973.56;;;20.28;45.61
71621;BME280;59471;42.254;23.102;2023-05-19T13:20:41;95994.16;;;20.21;45.36
71621;BME280;59471;42.254;23.102;2023-05-19T13:23:12;95974.50;;;20.22;45.83
71621;BME280;59471;42.254;23.102;2023-05-19T13:25:38;95981.94;;;19.96;47.52
71621;BME280;59471;42.254;23.102;2023-05-19T13:28:05;95979.84;;;19.98;47.13
71621;BME280;59471;42.254;23.102;2023-05-19T13:30:35;95983.22;;;20.05;45.87
71621;BME280;59471;42.254;23.102;2023-05-19T13:33:02;95989.47;;;19.99;46.39
71621;BME280;59471;42.254;23.102;2023-05-19T13:35:28;95978.81;;;19.99;45.50
71621;BME280;59471;42.254;23.102;2023-05-19T13:37:54;95983.69;;;19.90;46.43
71621;BME280;59471;42.254;23.102;2023-05-19T13:40:20;96004.72;;;19.80;46.04
71621;BME280;59471;42.254;23.102;2023-05-19T13:42:47;95983.59;;;19.74;45.91